sensor_id;sensor_type;location;lat;lon;timestamp;pressure;altitude;pressure_sealevel;temperature;humidity
72308;BME280;60257;42.638;23.376;2023-02-28T00:01:10;95041.41;;;6.51;83.00
72308;BME280;60257;42.638;23.376;2023-02-28T00:03:36;95048.81;;;6.59;82.80
72308;BME280;60257;42.638;23.376;2023-02-28T00:06:03;95048.78;;;6.50;83.18
72308;BME280;60257;42.638;23.376;2023-02-28T00:08:29;95033.47;;;6.32;83.30
72308;BME280;60257;42.638;23.376;2023-02-28T00:10:55;95048.47;;;6.52;83.41
72308;BME280;60257;42.638;23.376;2023-02-28T00:13:20;95041.56;;;6.46;83.43
72308;BME280;60257;42.638;23.376;2023-02-28T00:15:46;95060.53;;;6.60;83.41
72308;BME280;60257;42.638;23.376;2023-02-28T00:18:11;95065.19;;;6.59;83.23
72308;BME280;60257;42.638;23.376;2023-02-28T00:20:37;95046.75;;;6.56;83.49
72308;BME280;60257;42.638;23.376;2023-02-28T00:23:03;95056.09;;;6.64;83.64
72308;BME280;60257;42.638;23.376;2023-02-28T00:25:28;95048.72;;;6.64;83.52
72308;BME280;60257;42.638;23.376;2023-02-28T00:27:54;95042.31;;;6.69;83.33
72308;BME280;60257;42.638;23.376;2023-02-28T00:30:22;95050.84;;;6.76;83.25
72308;BME280;60257;42.638;23.376;2023-02-28T00:32:48;95048.34;;;6.88;82.93
72308;BME280;60257;42.638;23.376;2023-02-28T00:35:13;95056.88;;;6.95;82.58
72308;BME280;60257;42.638;23.376;2023-02-28T00:37:39;95050.59;;;6.86;82.66
72308;BME280;60257;42.638;23.376;2023-02-28T00:40:06;95046.09;;;6.90;82.63
72308;BME280;60257;42.638;23.376;2023-02-28T00:42:32;95046.03;;;6.73;83.27
72308;BME280;60257;42.638;23.376;2023-02-28T00:44:58;95035.16;;;6.50;83.86
72308;BME280;60257;42.638;23.376;2023-02-28T00:47:23;95033.47;;;6.32;84.58
72308;BME280;60257;42.638;23.376;2023-02-28T00:49:49;95042.00;;;6.39;84.61
72308;BME280;60257;42.638;23.376;2023-02-28T00:52:14;95035.75;;;6.39;84.54
72308;BME280;60257;42.638;23.376;2023-02-28T00:54:40;95046.63;;;6.39;84.42
72308;BME280;60257;42.638;23.376;2023-02-28T00:57:05;95036.50;;;6.08;85.17
72308;BME280;60257;42.638;23.376;2023-02-28T00:59:31;95055.94;;;6.15;85.08
72308;BME280;60257;42.638;23.376;2023-02-28T01:01:56;95047.31;;;6.22;84.89
72308;BME280;60257;42.638;23.376;2023-02-28T01:04:22;95039.56;;;6.38;84.13
72308;BME280;60257;42.638;23.376;2023-02-28T01:06:47;95062.78;;;6.57;83.50
72308;BME280;60257;42.638;23.376;2023-02-28T01:09:13;95055.16;;;6.46;83.90
72308;BME280;60257;42.638;23.376;2023-02-28T01:11:39;95045.22;;;6.41;84.47
72308;BME280;60257;42.638;23.376;2023-02-28T01:14:07;95053.63;;;6.53;84.22
72308;BME280;60257;42.638;23.376;2023-02-28T01:16:32;95044.53;;;6.58;83.96
72308;BME280;60257;42.638;23.376;2023-02-28T01:18:58;95033.06;;;6.47;84.07
72308;BME280;60257;42.638;23.376;2023-02-28T01:21:23;95042.72;;;6.53;84.09
72308;BME280;60257;42.638;23.376;2023-02-28T01:23:49;95045.50;;;6.62;83.94
72308;BME280;60257;42.638;23.376;2023-02-28T01:26:22;95041.34;;;6.65;83.57
72308;BME280;60257;42.638;23.376;2023-02-28T01:28:49;95038.25;;;6.57;83.71
72308;BME280;60257;42.638;23.376;2023-02-28T01:31:15;95030.91;;;6.58;83.69
72308;BME280;60257;42.638;23.376;2023-02-28T01:33:41;95035.97;;;6.51;84.07
72308;BME280;60257;42.638;23.376;2023-02-28T01:36:15;95038.47;;;6.39;84.56
72308;BME280;60257;42.638;23.376;2023-02-28T01:38:41;95040.81;;;6.32;84.70
72308;BME280;60257;42.638;23.376;2023-02-28T01:41:07;95042.53;;;6.28;84.67
72308;BME280;60257;42.638;23.376;2023-02-28T01:46:08;95044.00;;;6.25;84.72
72308;BME280;60257;42.638;23.376;2023-02-28T01:48:41;95039.78;;;6.19;84.68
72308;BME280;60257;42.638;23.376;2023-02-28T01:51:11;95046.16;;;6.14;85.05
72308;BME280;60257;42.638;23.376;2023-02-28T01:53:46;95041.34;;;6.11;85.16
72308;BME280;60257;42.638;23.376;2023-02-28T01:56:17;95055.63;;;5.95;86.06
72308;BME280;60257;42.638;23.376;2023-02-28T01:58:51;95047.75;;;5.93;85.95
72308;BME280;60257;42.638;23.376;2023-02-28T02:01:18;95019.31;;;5.86;85.69
72308;BME280;60257;42.638;23.376;2023-02-28T02:03:49;95052.41;;;5.93;85.89
72308;BME280;60257;42.638;23.376;2023-02-28T02:06:30;95059.69;;;5.70;86.58
72308;BME280;60257;42.638;23.376;2023-02-28T02:08:59;95061.81;;;5.59;87.33
72308;BME280;60257;42.638;23.376;2023-02-28T02:11:25;95054.31;;;5.42;87.67
72308;BME280;60257;42.638;23.376;2023-02-28T02:25:34;95044.53;;;5.91;86.89
72308;BME280;60257;42.638;23.376;2023-02-28T02:28:27;95038.41;;;6.08;86.39
72308;BME280;60257;42.638;23.376;2023-02-28T02:36:38;95035.25;;;5.92;86.38
72308;BME280;60257;42.638;23.376;2023-02-28T02:39:17;95043.94;;;5.94;86.36
72308;BME280;60257;42.638;23.376;2023-02-28T02:41:53;95039.63;;;5.79;86.81
72308;BME280;60257;42.638;23.376;2023-02-28T02:44:44;95044.28;;;5.65;87.12
72308;BME280;60257;42.638;23.376;2023-02-28T02:47:15;95044.69;;;5.59;87.24
72308;BME280;60257;42.638;23.376;2023-02-28T02:49:52;95057.00;;;5.56;87.81
72308;BME280;60257;42.638;23.376;2023-02-28T02:52:24;95054.84;;;5.67;87.34
72308;BME280;60257;42.638;23.376;2023-02-28T02:54:54;95043.59;;;5.60;87.55
72308;BME280;60257;42.638;23.376;2023-02-28T02:57:49;95058.63;;;5.57;87.60
72308;BME280;60257;42.638;23.376;2023-02-28T03:00:18;95062.72;;;5.68;87.10
72308;BME280;60257;42.638;23.376;2023-02-28T03:02:47;95067.41;;;5.90;86.73
72308;BME280;60257;42.638;23.376;2023-02-28T03:05:21;95075.22;;;6.05;86.01
72308;BME280;60257;42.638;23.376;2023-02-28T03:07:48;95084.09;;;6.11;85.72
72308;BME280;60257;42.638;23.376;2023-02-28T03:10:39;95084.34;;;5.87;86.04
72308;BME280;60257;42.638;23.376;2023-02-28T03:19:03;95099.00;;;6.13;85.97
72308;BME280;60257;42.638;23.376;2023-02-28T03:24:27;95101.06;;;6.30;85.41
72308;BME280;60257;42.638;23.376;2023-02-28T03:27:01;95100.00;;;6.17;85.72
72308;BME280;60257;42.638;23.376;2023-02-28T03:32:02;95103.47;;;6.32;84.40
72308;BME280;60257;42.638;23.376;2023-02-28T03:34:33;95110.25;;;6.21;84.11
72308;BME280;60257;42.638;23.376;2023-02-28T03:37:05;95106.44;;;6.22;83.96
72308;BME280;60257;42.638;23.376;2023-02-28T03:39:41;95102.72;;;6.17;83.69
72308;BME280;60257;42.638;23.376;2023-02-28T03:42:29;95111.56;;;6.23;83.26
72308;BME280;60257;42.638;23.376;2023-02-28T03:45:00;95107.88;;;6.19;83.25
72308;BME280;60257;42.638;23.376;2023-02-28T03:53:16;95124.31;;;6.14;83.75
72308;BME280;60257;42.638;23.376;2023-02-28T03:55:51;95110.53;;;6.10;83.54
72308;BME280;60257;42.638;23.376;2023-02-28T03:58:35;95112.44;;;6.10;83.50
72308;BME280;60257;42.638;23.376;2023-02-28T04:01:07;95115.25;;;6.05;83.69
72308;BME280;60257;42.638;23.376;2023-02-28T04:03:38;95122.25;;;5.97;83.88
72308;BME280;60257;42.638;23.376;2023-02-28T04:06:07;95121.94;;;5.99;84.08
72308;BME280;60257;42.638;23.376;2023-02-28T04:08:37;95108.25;;;5.90;84.48
72308;BME280;60257;42.638;23.376;2023-02-28T04:11:08;95105.03;;;5.88;85.01
72308;BME280;60257;42.638;23.376;2023-02-28T04:13:38;95117.28;;;5.50;86.03
72308;BME280;60257;42.638;23.376;2023-02-28T04:16:07;95114.97;;;5.29;87.03
72308;BME280;60257;42.638;23.376;2023-02-28T04:18:46;95110.94;;;5.40;87.18
72308;BME280;60257;42.638;23.376;2023-02-28T04:21:12;95120.00;;;5.50;86.85
72308;BME280;60257;42.638;23.376;2023-02-28T04:23:38;95109.81;;;5.55;86.57
72308;BME280;60257;42.638;23.376;2023-02-28T04:26:03;95103.84;;;5.53;86.52
72308;BME280;60257;42.638;23.376;2023-02-28T04:28:29;95115.63;;;5.62;86.09
72308;BME280;60257;42.638;23.376;2023-02-28T04:31:00;95106.94;;;5.74;85.46
72308;BME280;60257;42.638;23.376;2023-02-28T04:33:26;95110.00;;;5.72;85.26
72308;BME280;60257;42.638;23.376;2023-02-28T04:36:03;95121.84;;;5.76;85.30
72308;BME280;60257;42.638;23.376;2023-02-28T04:38:32;95118.63;;;5.74;84.66
72308;BME280;60257;42.638;23.376;2023-02-28T04:40:59;95133.66;;;5.72;85.05
72308;BME280;60257;42.638;23.376;2023-02-28T04:43:26;95133.66;;;5.72;85.10
72308;BME280;60257;42.638;23.376;2023-02-28T04:45:53;95134.06;;;5.65;84.97
72308;BME280;60257;42.638;23.376;2023-02-28T04:48:25;95139.50;;;5.65;85.19
72308;BME280;60257;42.638;23.376;2023-02-28T04:50:51;95127.03;;;5.64;85.07
72308;BME280;60257;42.638;23.376;2023-02-28T04:53:17;95135.75;;;5.75;84.87
72308;BME280;60257;42.638;23.376;2023-02-28T04:55:43;95132.16;;;5.79;84.51
72308;BME280;60257;42.638;23.376;2023-02-28T04:58:08;95139.00;;;5.77;85.01
72308;BME280;60257;42.638;23.376;2023-02-28T05:00:34;95139.94;;;5.72;85.15
72308;BME280;60257;42.638;23.376;2023-02-28T05:02:59;95142.72;;;5.67;85.25
72308;BME280;60257;42.638;23.376;2023-02-28T05:05:24;95139.81;;;5.50;85.47
72308;BME280;60257;42.638;23.376;2023-02-28T05:07:50;95130.94;;;5.58;85.91
72308;BME280;60257;42.638;23.376;2023-02-28T05:10:16;95138.72;;;5.65;85.63
72308;BME280;60257;42.638;23.376;2023-02-28T05:12:41;95142.22;;;5.65;85.44
72308;BME280;60257;42.638;23.376;2023-02-28T05:15:10;95147.28;;;5.72;85.07
72308;BME280;60257;42.638;23.376;2023-02-28T05:17:37;95151.91;;;5.71;84.87
72308;BME280;60257;42.638;23.376;2023-02-28T05:20:03;95140.13;;;5.62;84.83
72308;BME280;60257;42.638;23.376;2023-02-28T05:22:30;95154.25;;;5.64;85.13
72308;BME280;60257;42.638;23.376;2023-02-28T05:24:55;95157.94;;;5.82;84.19
72308;BME280;60257;42.638;23.376;2023-02-28T05:27:21;95154.81;;;5.89;84.41
72308;BME280;60257;42.638;23.376;2023-02-28T05:29:46;95152.19;;;5.84;84.69
72308;BME280;60257;42.638;23.376;2023-02-28T05:32:12;95165.41;;;6.04;84.28
72308;BME280;60257;42.638;23.376;2023-02-28T05:34:39;95160.94;;;6.08;83.79
72308;BME280;60257;42.638;23.376;2023-02-28T05:37:05;95161.88;;;6.03;83.74
72308;BME280;60257;42.638;23.376;2023-02-28T05:39:31;95154.81;;;6.02;83.55
72308;BME280;60257;42.638;23.376;2023-02-28T05:41:56;95170.09;;;6.12;83.36
72308;BME280;60257;42.638;23.376;2023-02-28T05:44:22;95171.53;;;6.09;83.25
72308;BME280;60257;42.638;23.376;2023-02-28T05:46:47;95184.84;;;6.11;83.36
72308;BME280;60257;42.638;23.376;2023-02-28T05:49:13;95175.75;;;6.15;83.03
72308;BME280;60257;42.638;23.376;2023-02-28T05:51:38;95177.53;;;6.20;83.11
72308;BME280;60257;42.638;23.376;2023-02-28T05:54:05;95186.81;;;6.33;82.87
72308;BME280;60257;42.638;23.376;2023-02-28T05:56:32;95186.69;;;6.38;83.40
72308;BME280;60257;42.638;23.376;2023-02-28T05:58:59;95189.09;;;6.39;82.88
72308;BME280;60257;42.638;23.376;2023-02-28T06:01:32;95185.94;;;6.46;82.69
72308;BME280;60257;42.638;23.376;2023-02-28T06:04:03;95177.91;;;6.41;82.36
72308;BME280;60257;42.638;23.376;2023-02-28T06:06:29;95170.69;;;6.23;82.88
72308;BME280;60257;42.638;23.376;2023-02-28T06:08:55;95179.97;;;6.22;83.01
72308;BME280;60257;42.638;23.376;2023-02-28T06:11:21;95179.53;;;6.28;82.88
72308;BME280;60257;42.638;23.376;2023-02-28T06:13:47;95177.69;;;6.37;82.70
72308;BME280;60257;42.638;23.376;2023-02-28T06:16:13;95173.34;;;6.36;82.32
72308;BME280;60257;42.638;23.376;2023-02-28T06:18:39;95179.81;;;6.40;82.45
72308;BME280;60257;42.638;23.376;2023-02-28T06:21:04;95172.31;;;6.46;82.56
72308;BME280;60257;42.638;23.376;2023-02-28T06:23:30;95176.72;;;6.55;82.42
72308;BME280;60257;42.638;23.376;2023-02-28T06:25:56;95194.75;;;6.65;82.16
72308;BME280;60257;42.638;23.376;2023-02-28T06:28:25;95170.78;;;6.76;81.80
72308;BME280;60257;42.638;23.376;2023-02-28T06:30:51;95182.25;;;6.86;82.32
72308;BME280;60257;42.638;23.376;2023-02-28T06:33:16;95183.09;;;6.95;81.57
72308;BME280;60257;42.638;23.376;2023-02-28T06:35:47;95157.66;;;6.78;81.70
72308;BME280;60257;42.638;23.376;2023-02-28T06:38:12;95180.09;;;7.06;81.08
72308;BME280;60257;42.638;23.376;2023-02-28T06:40:38;95189.03;;;6.97;80.59
72308;BME280;60257;42.638;23.376;2023-02-28T06:43:03;95182.03;;;7.05;80.18
72308;BME280;60257;42.638;23.376;2023-02-28T06:45:29;95186.81;;;7.00;80.05
72308;BME280;60257;42.638;23.376;2023-02-28T06:47:54;95187.13;;;6.98;80.15
72308;BME280;60257;42.638;23.376;2023-02-28T06:50:20;95192.25;;;7.00;80.08
72308;BME280;60257;42.638;23.376;2023-02-28T06:52:46;95201.75;;;7.02;80.48
72308;BME280;60257;42.638;23.376;2023-02-28T06:55:13;95190.69;;;7.07;80.44
72308;BME280;60257;42.638;23.376;2023-02-28T06:57:38;95176.22;;;6.98;80.27
72308;BME280;60257;42.638;23.376;2023-02-28T07:00:08;95205.34;;;7.11;80.03
72308;BME280;60257;42.638;23.376;2023-02-28T07:02:37;95199.88;;;7.11;80.50
72308;BME280;60257;42.638;23.376;2023-02-28T07:05:04;95203.44;;;7.12;80.18
72308;BME280;60257;42.638;23.376;2023-02-28T07:07:30;95204.00;;;7.31;79.92
72308;BME280;60257;42.638;23.376;2023-02-28T07:09:55;95201.28;;;7.31;79.73
72308;BME280;60257;42.638;23.376;2023-02-28T07:12:21;95187.72;;;7.17;79.88
72308;BME280;60257;42.638;23.376;2023-02-28T07:14:47;95190.50;;;7.26;79.72
72308;BME280;60257;42.638;23.376;2023-02-28T07:17:12;95195.59;;;7.50;79.60
72308;BME280;60257;42.638;23.376;2023-02-28T07:19:38;95184.03;;;7.53;79.66
72308;BME280;60257;42.638;23.376;2023-02-28T07:22:04;95194.88;;;7.66;79.57
72308;BME280;60257;42.638;23.376;2023-02-28T07:24:30;95173.81;;;7.58;79.94
72308;BME280;60257;42.638;23.376;2023-02-28T07:26:56;95183.97;;;7.84;79.43
72308;BME280;60257;42.638;23.376;2023-02-28T07:29:22;95179.03;;;7.94;79.23
72308;BME280;60257;42.638;23.376;2023-02-28T07:31:47;95186.13;;;8.04;78.79
72308;BME280;60257;42.638;23.376;2023-02-28T07:34:13;95191.78;;;8.25;78.69
72308;BME280;60257;42.638;23.376;2023-02-28T07:36:39;95192.44;;;8.30;78.61
72308;BME280;60257;42.638;23.376;2023-02-28T07:39:04;95192.66;;;8.42;78.33
72308;BME280;60257;42.638;23.376;2023-02-28T07:41:30;95189.59;;;8.53;78.30
72308;BME280;60257;42.638;23.376;2023-02-28T07:43:58;95194.25;;;8.61;78.20
72308;BME280;60257;42.638;23.376;2023-02-28T07:46:25;95189.78;;;8.73;78.23
72308;BME280;60257;42.638;23.376;2023-02-28T07:48:51;95194.44;;;8.90;78.11
72308;BME280;60257;42.638;23.376;2023-02-28T07:51:18;95195.84;;;9.05;77.39
72308;BME280;60257;42.638;23.376;2023-02-28T07:53:43;95187.50;;;8.93;77.17
72308;BME280;60257;42.638;23.376;2023-02-28T07:56:09;95195.69;;;8.84;77.62
72308;BME280;60257;42.638;23.376;2023-02-28T07:58:36;95186.69;;;8.92;77.53
72308;BME280;60257;42.638;23.376;2023-02-28T08:01:06;95181.53;;;8.99;77.47
72308;BME280;60257;42.638;23.376;2023-02-28T08:03:32;95186.03;;;9.04;77.46
72308;BME280;60257;42.638;23.376;2023-02-28T08:05:58;95183.94;;;9.09;77.05
72308;BME280;60257;42.638;23.376;2023-02-28T08:08:23;95186.84;;;9.13;77.29
72308;BME280;60257;42.638;23.376;2023-02-28T08:10:48;95184.03;;;9.21;77.23
72308;BME280;60257;42.638;23.376;2023-02-28T08:13:14;95183.72;;;9.32;76.99
72308;BME280;60257;42.638;23.376;2023-02-28T08:15:41;95175.97;;;9.42;77.00
72308;BME280;60257;42.638;23.376;2023-02-28T08:18:08;95189.13;;;9.57;77.11
72308;BME280;60257;42.638;23.376;2023-02-28T08:20:33;95178.41;;;9.73;76.51
72308;BME280;60257;42.638;23.376;2023-02-28T08:22:59;95174.56;;;9.74;76.53
72308;BME280;60257;42.638;23.376;2023-02-28T08:25:24;95177.41;;;9.78;76.77
72308;BME280;60257;42.638;23.376;2023-02-28T08:27:53;95174.44;;;9.62;77.39
72308;BME280;60257;42.638;23.376;2023-02-28T08:30:18;95180.66;;;9.80;76.92
72308;BME280;60257;42.638;23.376;2023-02-28T08:32:44;95180.59;;;9.88;76.27
72308;BME280;60257;42.638;23.376;2023-02-28T08:35:09;95190.25;;;9.94;75.97
72308;BME280;60257;42.638;23.376;2023-02-28T08:37:35;95183.44;;;9.62;76.78
72308;BME280;60257;42.638;23.376;2023-02-28T08:40:01;95192.91;;;9.74;76.74
72308;BME280;60257;42.638;23.376;2023-02-28T08:42:26;95197.56;;;9.82;76.16
72308;BME280;60257;42.638;23.376;2023-02-28T08:44:52;95177.53;;;9.90;75.81
72308;BME280;60257;42.638;23.376;2023-02-28T08:47:18;95188.25;;;10.03;75.53
72308;BME280;60257;42.638;23.376;2023-02-28T08:49:44;95184.47;;;10.17;74.88
72308;BME280;60257;42.638;23.376;2023-02-28T08:52:09;95184.97;;;10.19;74.64
72308;BME280;60257;42.638;23.376;2023-02-28T08:54:35;95185.53;;;10.33;74.76
72308;BME280;60257;42.638;23.376;2023-02-28T08:57:02;95188.28;;;10.33;74.21
72308;BME280;60257;42.638;23.376;2023-02-28T08:59:29;95178.03;;;10.21;74.05
72308;BME280;60257;42.638;23.376;2023-02-28T09:01:54;95183.84;;;10.20;74.24
72308;BME280;60257;42.638;23.376;2023-02-28T09:04:20;95194.13;;;10.23;74.30
72308;BME280;60257;42.638;23.376;2023-02-28T09:06:45;95189.59;;;10.27;73.82
72308;BME280;60257;42.638;23.376;2023-02-28T09:09:11;95192.06;;;10.20;73.72
72308;BME280;60257;42.638;23.376;2023-02-28T09:11:37;95187.78;;;10.31;73.53
72308;BME280;60257;42.638;23.376;2023-02-28T09:14:02;95189.81;;;10.43;73.35
72308;BME280;60257;42.638;23.376;2023-02-28T09:16:29;95189.50;;;10.65;73.30
72308;BME280;60257;42.638;23.376;2023-02-28T09:18:54;95181.00;;;10.78;72.79
72308;BME280;60257;42.638;23.376;2023-02-28T09:21:20;95189.97;;;10.88;72.84
72308;BME280;60257;42.638;23.376;2023-02-28T09:23:48;95190.88;;;10.92;72.70
72308;BME280;60257;42.638;23.376;2023-02-28T09:26:33;95183.75;;;10.99;71.42
72308;BME280;60257;42.638;23.376;2023-02-28T09:28:59;95183.22;;;11.18;68.56
72308;BME280;60257;42.638;23.376;2023-02-28T09:31:27;95178.69;;;11.22;68.98
72308;BME280;60257;42.638;23.376;2023-02-28T09:33:55;95174.47;;;11.04;70.71
72308;BME280;60257;42.638;23.376;2023-02-28T09:36:23;95183.00;;;10.90;71.76
72308;BME280;60257;42.638;23.376;2023-02-28T09:38:49;95178.31;;;10.70;71.72
72308;BME280;60257;42.638;23.376;2023-02-28T09:41:25;95180.25;;;10.69;71.82
72308;BME280;60257;42.638;23.376;2023-02-28T09:43:59;95180.94;;;10.66;71.77
72308;BME280;60257;42.638;23.376;2023-02-28T09:46:37;95175.56;;;10.70;72.22
72308;BME280;60257;42.638;23.376;2023-02-28T09:49:11;95180.34;;;10.82;71.46
72308;BME280;60257;42.638;23.376;2023-02-28T09:54:21;95185.38;;;10.92;70.81
72308;BME280;60257;42.638;23.376;2023-02-28T09:56:58;95171.19;;;11.10;69.29
72308;BME280;60257;42.638;23.376;2023-02-28T10:05:00;95172.09;;;11.47;66.89
72308;BME280;60257;42.638;23.376;2023-02-28T10:10:36;95167.72;;;11.46;66.56
72308;BME280;60257;42.638;23.376;2023-02-28T10:13:07;95156.41;;;11.36;67.07
72308;BME280;60257;42.638;23.376;2023-02-28T10:15:38;95151.38;;;11.38;67.91
72308;BME280;60257;42.638;23.376;2023-02-28T10:18:08;95163.00;;;11.23;68.91
72308;BME280;60257;42.638;23.376;2023-02-28T10:20:39;95143.50;;;11.15;69.13
72308;BME280;60257;42.638;23.376;2023-02-28T10:23:20;95159.88;;;11.12;68.86
72308;BME280;60257;42.638;23.376;2023-02-28T10:25:53;95153.16;;;11.22;68.76
72308;BME280;60257;42.638;23.376;2023-02-28T10:28:19;95145.72;;;11.22;68.88
72308;BME280;60257;42.638;23.376;2023-02-28T10:30:50;95152.72;;;11.32;68.37
72308;BME280;60257;42.638;23.376;2023-02-28T10:35:50;95139.78;;;11.32;68.30
72308;BME280;60257;42.638;23.376;2023-02-28T10:38:20;95142.28;;;11.25;68.28
72308;BME280;60257;42.638;23.376;2023-02-28T10:40:46;95139.78;;;11.20;68.53
72308;BME280;60257;42.638;23.376;2023-02-28T10:46:35;95124.19;;;11.12;68.41
72308;BME280;60257;42.638;23.376;2023-02-28T10:49:01;95118.56;;;11.08;69.10
72308;BME280;60257;42.638;23.376;2023-02-28T10:51:35;95114.59;;;11.18;68.79
72308;BME280;60257;42.638;23.376;2023-02-28T10:54:02;95106.03;;;11.19;68.61
72308;BME280;60257;42.638;23.376;2023-02-28T10:56:28;95105.03;;;11.36;67.28
72308;BME280;60257;42.638;23.376;2023-02-28T10:59:05;95108.25;;;11.50;66.56
72308;BME280;60257;42.638;23.376;2023-02-28T11:01:48;95101.81;;;11.46;65.72
72308;BME280;60257;42.638;23.376;2023-02-28T11:06:51;95089.00;;;11.38;67.04
72308;BME280;60257;42.638;23.376;2023-02-28T11:09:30;95092.69;;;11.67;66.35
72308;BME280;60257;42.638;23.376;2023-02-28T11:11:57;95093.25;;;11.72;65.55
72308;BME280;60257;42.638;23.376;2023-02-28T11:14:28;95093.75;;;11.74;65.90
72308;BME280;60257;42.638;23.376;2023-02-28T11:16:59;95092.81;;;11.94;65.36
72308;BME280;60257;42.638;23.376;2023-02-28T11:19:44;95090.63;;;12.00;65.36
72308;BME280;60257;42.638;23.376;2023-02-28T11:22:18;95092.09;;;12.10;65.09
72308;BME280;60257;42.638;23.376;2023-02-28T11:24:48;95088.69;;;12.01;64.59
72308;BME280;60257;42.638;23.376;2023-02-28T11:27:48;95084.47;;;11.91;64.79
72308;BME280;60257;42.638;23.376;2023-02-28T11:30:35;95078.38;;;11.73;65.53
72308;BME280;60257;42.638;23.376;2023-02-28T11:35:49;95087.91;;;11.76;66.73
72308;BME280;60257;42.638;23.376;2023-02-28T11:38:15;95083.88;;;11.61;66.25
72308;BME280;60257;42.638;23.376;2023-02-28T11:43:35;95090.63;;;11.64;65.59
72308;BME280;60257;42.638;23.376;2023-02-28T11:49:01;95079.88;;;12.07;63.36
72308;BME280;60257;42.638;23.376;2023-02-28T12:00:01;95074.38;;;12.07;64.90
72308;BME280;60257;42.638;23.376;2023-02-28T12:05:45;95065.72;;;12.33;63.28
72308;BME280;60257;42.638;23.376;2023-02-28T12:08:15;95066.56;;;12.61;61.92
72308;BME280;60257;42.638;23.376;2023-02-28T12:16:18;95068.09;;;12.75;61.13
72308;BME280;60257;42.638;23.376;2023-02-28T12:24:07;95055.97;;;12.63;60.36
72308;BME280;60257;42.638;23.376;2023-02-28T12:26:48;95058.78;;;12.51;60.24
72308;BME280;60257;42.638;23.376;2023-02-28T12:31:53;95060.34;;;12.24;63.13
72308;BME280;60257;42.638;23.376;2023-02-28T12:34:28;95058.19;;;12.18;63.70
72308;BME280;60257;42.638;23.376;2023-02-28T12:36:58;95063.47;;;12.23;63.94
72308;BME280;60257;42.638;23.376;2023-02-28T12:39:30;95071.03;;;12.14;64.17
72308;BME280;60257;42.638;23.376;2023-02-28T12:42:19;95059.63;;;12.00;64.51
72308;BME280;60257;42.638;23.376;2023-02-28T12:45:01;95060.25;;;12.21;63.99
72308;BME280;60257;42.638;23.376;2023-02-28T12:47:27;95049.38;;;12.12;64.32
72308;BME280;60257;42.638;23.376;2023-02-28T12:50:10;95064.75;;;12.13;63.74
72308;BME280;60257;42.638;23.376;2023-02-28T12:57:48;95058.69;;;12.08;64.63
72308;BME280;60257;42.638;23.376;2023-02-28T13:00:20;95066.13;;;11.95;65.09
72308;BME280;60257;42.638;23.376;2023-02-28T13:06:40;95065.78;;;11.97;64.02
72308;BME280;60257;42.638;23.376;2023-02-28T13:11:24;95061.81;;;11.82;64.62
72308;BME280;60257;42.638;23.376;2023-02-28T13:13:58;95056.88;;;11.87;63.72
72308;BME280;60257;42.638;23.376;2023-02-28T13:16:24;95046.81;;;11.79;63.22
72308;BME280;60257;42.638;23.376;2023-02-28T13:18:50;95053.31;;;11.87;63.10
72308;BME280;60257;42.638;23.376;2023-02-28T13:21:27;95049.63;;;11.71;64.05
72308;BME280;60257;42.638;23.376;2023-02-28T13:29:11;95052.72;;;11.69;63.16
72308;BME280;60257;42.638;23.376;2023-02-28T13:34:37;95052.06;;;11.60;63.94
72308;BME280;60257;42.638;23.376;2023-02-28T13:37:41;95055.16;;;11.58;63.64
72308;BME280;60257;42.638;23.376;2023-02-28T13:42:46;95047.59;;;11.55;66.89
72308;BME280;60257;42.638;23.376;2023-02-28T13:45:29;95048.66;;;11.75;64.04
72308;BME280;60257;42.638;23.376;2023-02-28T13:48:03;95034.09;;;11.87;62.76
72308;BME280;60257;42.638;23.376;2023-02-28T13:50:36;95033.53;;;11.81;63.88
72308;BME280;60257;42.638;23.376;2023-02-28T14:04:21;95037.06;;;11.57;64.70
72308;BME280;60257;42.638;23.376;2023-02-28T14:06:53;95036.72;;;11.47;65.29
72308;BME280;60257;42.638;23.376;2023-02-28T14:09:41;95031.47;;;11.30;65.45
72308;BME280;60257;42.638;23.376;2023-02-28T14:15:30;95048.59;;;11.39;65.46
72308;BME280;60257;42.638;23.376;2023-02-28T14:20:55;95041.88;;;11.36;65.68
72308;BME280;60257;42.638;23.376;2023-02-28T14:26:26;95028.69;;;11.17;66.33
72308;BME280;60257;42.638;23.376;2023-02-28T14:31:42;95057.03;;;11.09;66.79
72308;BME280;60257;42.638;23.376;2023-02-28T14:34:31;95046.28;;;11.04;66.71
72308;BME280;60257;42.638;23.376;2023-02-28T14:37:02;95056.56;;;10.95;67.12
72308;BME280;60257;42.638;23.376;2023-02-28T14:39:28;95045.72;;;10.99;67.02
72308;BME280;60257;42.638;23.376;2023-02-28T14:41:58;95043.97;;;10.94;67.65
72308;BME280;60257;42.638;23.376;2023-02-28T14:44:28;95051.97;;;10.87;67.69
72308;BME280;60257;42.638;23.376;2023-02-28T14:47:00;95060.63;;;10.77;67.79
72308;BME280;60257;42.638;23.376;2023-02-28T14:49:41;95044.81;;;10.62;68.02
72308;BME280;60257;42.638;23.376;2023-02-28T14:52:20;95051.22;;;10.66;68.38
72308;BME280;60257;42.638;23.376;2023-02-28T14:54:52;95047.91;;;10.60;68.55
72308;BME280;60257;42.638;23.376;2023-02-28T14:57:32;95056.31;;;10.55;68.84
72308;BME280;60257;42.638;23.376;2023-02-28T15:00:09;95043.94;;;10.37;69.13
72308;BME280;60257;42.638;23.376;2023-02-28T15:02:38;95040.34;;;10.16;69.59
72308;BME280;60257;42.638;23.376;2023-02-28T15:07:42;95048.72;;;9.98;70.56
72308;BME280;60257;42.638;23.376;2023-02-28T15:10:13;95046.91;;;10.02;70.05
72308;BME280;60257;42.638;23.376;2023-02-28T15:12:41;95041.09;;;10.04;69.72
72308;BME280;60257;42.638;23.376;2023-02-28T15:15:15;95041.44;;;10.02;69.87
72308;BME280;60257;42.638;23.376;2023-02-28T15:17:45;95039.44;;;9.91;70.20
72308;BME280;60257;42.638;23.376;2023-02-28T15:20:15;95046.38;;;9.88;70.54
72308;BME280;60257;42.638;23.376;2023-02-28T15:22:42;95049.91;;;9.89;70.82
72308;BME280;60257;42.638;23.376;2023-02-28T15:25:13;95037.09;;;9.81;70.88
72308;BME280;60257;42.638;23.376;2023-02-28T15:27:45;95050.44;;;9.82;70.78